Time;durP1;ratioP1;P1;durP2;ratioP2;P2;SDS_P1;SDS_P2;PMS_P1;PMS_P2;Temp;Humidity;BMP_temperature;BMP_pressure;BME280_temperature;BME280_humidity;BME280_pressure;Samples;Min_cycle;Max_cycle;Signal;HPM_P1;HPM_P2
2022/03/01 00:00:18;;;;;;;12.75;5.10;;;;;;;1.57;72.10;102031.66;5062959;28;20028;-75
2022/03/01 00:02:44;;;;;;;16.92;5.53;;;;;;;1.51;72.47;102029.63;5062845;28;20109;-73
2022/03/01 00:05:09;;;;;;;13.40;4.93;;;;;;;1.55;72.38;102040.94;5062865;28;20041;-73
2022/03/01 00:07:35;;;;;;;14.82;5.78;;;;;;;1.66;71.86;102029.59;5062844;28;20037;-73
2022/03/01 00:10:00;;;;;;;13.07;5.28;;;;;;;1.59;72.23;102018.16;5062640;28;20020;-73
2022/03/01 00:12:26;;;;;;;17.98;5.18;;;;;;;1.56;72.05;102010.31;5062797;28;20035;-73
2022/03/01 00:14:52;;;;;;;15.50;5.13;;;;;;;1.59;72.16;102019.81;5062728;28;20455;-73
2022/03/01 00:17:17;;;;;;;16.48;6.18;;;;;;;1.61;72.08;102031.03;5062671;28;20021;-73
2022/03/01 00:19:43;;;;;;;15.77;6.72;;;;;;;1.61;72.11;102021.66;5044823;28;20021;-74
2022/03/01 00:22:08;;;;;;;18.05;5.82;;;;;;;1.57;71.98;102011.16;5062627;28;20025;-74
2022/03/01 00:24:33;;;;;;;12.35;4.85;;;;;;;1.70;71.68;102016.16;5044587;28;20025;-74
2022/03/01 00:26:59;;;;;;;14.48;5.38;;;;;;;1.65;71.55;102009.00;5062504;28;20025;-74
2022/03/01 00:29:24;;;;;;;11.32;5.18;;;;;;;1.65;71.84;101998.78;5062728;28;20357;-73
2022/03/01 00:31:50;;;;;;;13.13;5.72;;;;;;;1.61;71.71;102003.72;5062536;28;20063;-73
2022/03/01 00:34:15;;;;;;;14.90;5.85;;;;;;;1.59;71.86;102007.00;5065746;28;20017;-74
2022/03/01 00:36:41;;;;;;;16.38;5.70;;;;;;;1.60;71.72;102001.09;5066441;28;20080;-72
2022/03/01 00:39:07;;;;;;;12.90;5.28;;;;;;;1.61;71.79;101988.38;5066592;28;20028;-74
2022/03/01 00:41:33;;;;;;;12.65;5.03;;;;;;;1.82;71.30;102002.28;5066004;28;20121;-72
2022/03/01 00:43:59;;;;;;;14.88;6.22;;;;;;;1.73;71.42;101995.84;5066520;28;20021;-72
2022/03/01 00:46:26;;;;;;;15.27;6.18;;;;;;;1.67;71.73;101989.50;5066449;28;20029;-72
2022/03/01 00:48:53;;;;;;;19.23;6.47;;;;;;;1.72;71.61;101993.19;5066325;28;20473;-72
2022/03/01 00:51:18;;;;;;;17.88;6.25;;;;;;;1.75;71.64;101997.59;5066289;28;20043;-72
2022/03/01 00:53:44;;;;;;;23.67;6.20;;;;;;;1.72;71.70;101999.22;5066322;28;20114;-73
2022/03/01 00:56:09;;;;;;;12.90;5.40;;;;;;;1.68;71.74;101998.94;5065872;28;20035;-73
2022/03/01 00:58:34;;;;;;;14.88;6.63;;;;;;;1.68;71.81;101994.72;5048204;28;20024;-74
2022/03/01 01:01:00;;;;;;;17.88;7.25;;;;;;;1.80;71.53;102007.31;5065980;28;20122;-73
2022/03/01 01:03:25;;;;;;;14.02;5.47;;;;;;;1.69;71.71;101991.34;5066037;28;20021;-74
2022/03/01 01:05:51;;;;;;;13.25;5.70;;;;;;;1.75;71.82;101998.50;5066214;28;20029;-74
2022/03/01 01:08:16;;;;;;;17.98;7.45;;;;;;;1.72;71.81;101981.28;5048128;28;20033;-75
2022/03/01 01:10:41;;;;;;;27.50;6.53;;;;;;;1.70;71.75;101985.44;5065820;28;20079;-74
2022/03/01 01:13:07;;;;;;;15.93;6.60;;;;;;;1.82;71.74;101992.88;5047716;28;20025;-74
2022/03/01 01:15:32;;;;;;;20.85;7.30;;;;;;;1.73;71.88;101990.72;5065898;28;20035;-73
2022/03/01 01:17:58;;;;;;;11.48;5.78;;;;;;;1.79;71.93;101990.16;5065864;28;20017;-73
2022/03/01 01:20:23;;;;;;;15.40;7.07;;;;;;;1.79;72.07;101984.19;5066080;28;20058;-73
2022/03/01 01:22:48;;;;;;;13.25;5.85;;;;;;;1.84;71.96;101988.72;5065615;28;20021;-74
2022/03/01 01:25:19;;;;;;;23.70;7.30;;;;;;;1.86;71.88;101991.38;5065458;28;20049;-75
2022/03/01 01:27:47;;;;;;;20.77;6.82;;;;;;;1.82;71.95;101984.34;5065820;28;20028;-74
2022/03/01 01:30:15;;;;;;;14.60;7.20;;;;;;;1.87;71.94;101975.19;5065704;28;20017;-73
2022/03/01 01:32:42;;;;;;;19.95;7.32;;;;;;;1.88;71.94;101982.09;5065404;28;20171;-74
2022/03/01 01:35:09;;;;;;;18.48;7.22;;;;;;;1.81;71.92;101990.25;5065691;28;20048;-74
2022/03/01 01:37:34;;;;;;;14.48;6.75;;;;;;;1.87;72.17;101982.88;5065292;28;20057;-73
2022/03/01 01:40:00;;;;;;;16.55;8.52;;;;;;;1.84;72.32;101973.38;5065173;28;20036;-73
2022/03/01 01:42:26;;;;;;;19.05;7.50;;;;;;;1.82;72.61;101966.41;5065346;28;20025;-74
2022/03/01 01:44:51;;;;;;;15.50;6.97;;;;;;;1.85;72.45;101970.00;5064362;28;20025;-74
2022/03/01 01:47:17;;;;;;;23.17;8.65;;;;;;;1.81;72.53;101969.75;5065366;28;20374;-74
2022/03/01 01:49:42;;;;;;;24.63;8.50;;;;;;;1.82;72.49;101953.59;5065396;28;20025;-74
2022/03/01 01:52:08;;;;;;;18.88;6.75;;;;;;;1.89;72.58;101976.16;5065235;28;20480;-73
2022/03/01 01:54:33;;;;;;;15.60;6.65;;;;;;;1.94;72.67;101982.41;5065280;28;20029;-73
2022/03/01 01:56:59;;;;;;;29.98;8.98;;;;;;;1.87;72.68;101985.44;5064941;28;20021;-74
2022/03/01 01:59:24;;;;;;;22.27;9.07;;;;;;;1.85;72.90;101969.13;5047378;28;20032;-74
2022/03/01 02:01:50;;;;;;;23.33;8.75;;;;;;;1.82;72.93;101966.41;5064954;28;20025;-74
2022/03/01 02:04:15;;;;;;;25.23;9.13;;;;;;;1.77;73.33;101971.28;5065108;28;20020;-75
2022/03/01 02:06:51;;;;;;;32.75;8.90;;;;;;;1.83;73.40;101975.84;5065239;28;20297;-74
2022/03/01 02:09:16;;;;;;;20.30;8.18;;;;;;;1.81;73.58;101969.75;5065052;28;20039;-73
2022/03/01 02:11:42;;;;;;;19.30;8.48;;;;;;;1.81;73.64;101968.09;5064773;28;20021;-73
2022/03/01 02:14:07;;;;;;;23.20;9.65;;;;;;;1.85;73.63;101964.00;5065039;28;20055;-75
2022/03/01 02:16:34;;;;;;;26.30;9.25;;;;;;;1.82;73.83;101968.97;5064900;28;20029;-74
2022/03/01 02:18:59;;;;;;;31.55;10.40;;;;;;;1.79;74.07;101956.88;5065072;28;20025;-75
2022/03/01 02:21:25;;;;;;;24.40;12.07;;;;;;;1.79;74.17;101953.44;5064658;28;20052;-74
2022/03/01 02:23:50;;;;;;;29.30;11.13;;;;;;;1.74;74.26;101950.66;5064735;28;20033;-73
2022/03/01 02:26:15;;;;;;;18.13;7.55;;;;;;;1.77;74.38;101947.34;5064438;28;20045;-73
2022/03/01 02:28:41;;;;;;;25.23;9.15;;;;;;;1.66;74.39;101939.97;5064561;28;20028;-73
2022/03/01 02:31:06;;;;;;;30.35;11.60;;;;;;;1.71;74.63;101947.94;5064635;28;20021;-74
2022/03/01 02:33:31;;;;;;;24.10;10.25;;;;;;;1.69;74.60;101934.16;5064716;28;20027;-73
2022/03/01 02:35:57;;;;;;;26.27;9.75;;;;;;;1.65;74.82;101933.09;5064081;28;20036;-73
2022/03/01 02:38:22;;;;;;;32.03;12.00;;;;;;;1.71;74.86;101940.25;5064450;28;20020;-73
2022/03/01 02:40:49;;;;;;;28.73;10.48;;;;;;;1.72;75.09;101942.00;5064124;28;20122;-73
2022/03/01 02:43:16;;;;;;;31.42;13.63;;;;;;;1.74;75.19;101940.41;5064253;28;20353;-74
2022/03/01 02:45:41;;;;;;;29.67;11.38;;;;;;;1.66;75.20;101934.84;5064294;28;20017;-74
2022/03/01 02:48:06;;;;;;;21.90;8.48;;;;;;;1.69;75.57;101941.84;5064288;28;20032;-74
2022/03/01 02:50:32;;;;;;;23.25;10.18;;;;;;;1.65;75.71;101922.84;5064132;28;20028;-73
2022/03/01 02:52:57;;;;;;;25.83;11.25;;;;;;;1.64;75.87;101933.03;5063477;28;20448;-73
2022/03/01 02:55:22;;;;;;;26.40;9.93;;;;;;;1.69;76.09;101935.00;5062359;28;20051;-74
2022/03/01 02:57:48;;;;;;;27.50;11.77;;;;;;;1.79;76.04;101933.81;5062770;28;20028;-73
2022/03/01 03:00:13;;;;;;;25.77;9.15;;;;;;;1.67;76.29;101923.81;5044849;28;20025;-74
2022/03/01 03:02:39;;;;;;;24.05;11.35;;;;;;;1.76;76.07;101923.41;5062731;28;20017;-73
2022/03/01 03:05:06;;;;;;;32.83;12.10;;;;;;;1.76;76.11;101925.97;5063008;28;20029;-73
2022/03/01 03:07:31;;;;;;;34.28;10.05;;;;;;;1.70;76.22;101924.00;5063189;28;20032;-73
2022/03/01 03:09:57;;;;;;;34.83;11.35;;;;;;;1.65;76.19;101919.41;5063479;28;20025;-72
2022/03/01 03:12:22;;;;;;;21.25;8.20;;;;;;;1.60;76.67;101908.91;5063612;28;20009;-73
2022/03/01 03:14:48;;;;;;;34.90;13.85;;;;;;;1.67;76.68;101922.94;5063676;28;20483;-73
2022/03/01 03:17:13;;;;;;;29.15;13.18;;;;;;;1.66;76.81;101914.38;5063515;28;20112;-73
2022/03/01 03:19:38;;;;;;;21.10;8.52;;;;;;;1.69;76.60;101921.34;5045463;28;20020;-73
2022/03/01 03:22:05;;;;;;;34.63;12.98;;;;;;;1.66;76.82;101901.56;5063381;28;20096;-73
2022/03/01 03:24:30;;;;;;;28.25;11.77;;;;;;;1.64;76.80;101903.19;5063303;28;20028;-73
2022/03/01 03:26:56;;;;;;;33.90;14.35;;;;;;;1.69;76.93;101916.22;5044952;28;20029;-73
2022/03/01 03:29:21;;;;;;;44.30;15.43;;;;;;;1.68;76.89;101915.34;5062463;28;20043;-74
2022/03/01 03:31:46;;;;;;;32.05;12.90;;;;;;;1.73;76.80;101913.91;5062724;28;20025;-75
2022/03/01 03:34:12;;;;;;;30.83;12.95;;;;;;;1.74;76.88;101922.47;5063232;28;20024;-73
2022/03/01 03:36:39;;;;;;;42.65;16.88;;;;;;;1.76;76.93;101907.19;5041713;28;20056;-73
2022/03/01 03:39:06;;;;;;;43.97;16.15;;;;;;;1.69;76.94;101906.84;5043220;28;20045;-74
2022/03/01 03:41:32;;;;;;;47.13;16.88;;;;;;;1.69;76.88;101909.41;5042801;28;20037;-74
2022/03/01 03:43:59;;;;;;;37.55;14.15;;;;;;;1.68;77.06;101904.19;5041846;28;20063;-74
2022/03/01 03:46:25;;;;;;;43.75;14.30;;;;;;;1.69;77.08;101903.44;5041933;28;20022;-74
2022/03/01 03:48:52;;;;;;;36.40;14.90;;;;;;;1.61;77.32;101893.63;5041769;28;20024;-74
2022/03/01 03:51:17;;;;;;;37.95;15.85;;;;;;;1.61;77.17;101893.63;5043292;28;20024;-74
2022/03/01 03:53:43;;;;;;;43.08;16.55;;;;;;;1.67;77.24;101902.44;5043225;28;20025;-74
2022/03/01 03:56:08;;;;;;;40.92;16.75;;;;;;;1.64;77.49;101897.16;5041552;28;20112;-74
2022/03/01 03:58:34;;;;;;;41.60;17.05;;;;;;;1.67;77.38;101899.91;5041576;28;20028;-74
2022/03/01 04:00:59;;;;;;;34.03;11.70;;;;;;;1.67;77.44;101895.66;5042979;28;20029;-74
2022/03/01 04:03:24;;;;;;;37.92;13.90;;;;;;;1.70;77.43;101893.25;5041576;28;20029;-74
2022/03/01 04:05:50;;;;;;;25.80;10.60;;;;;;;1.63;77.57;101888.59;5042831;28;20028;-74
2022/03/01 04:08:16;;;;;;;37.15;15.18;;;;;;;1.62;77.50;101881.72;5042208;28;20026;-73
2022/03/01 04:10:42;;;;;;;34.75;14.43;;;;;;;1.71;77.38;101895.00;5042518;28;20045;-72
2022/03/01 04:13:07;;;;;;;37.55;12.68;;;;;;;1.91;77.07;101896.84;5043049;28;20028;-74
2022/03/01 04:15:33;;;;;;;36.83;15.10;;;;;;;1.78;77.05;101897.88;5041451;28;20026;-74
2022/03/01 04:17:58;;;;;;;30.98;13.23;;;;;;;1.78;77.21;101896.22;5042977;28;20078;-74
2022/03/01 04:20:24;;;;;;;41.72;15.13;;;;;;;1.73;77.42;101893.41;5041487;28;20330;-74
2022/03/01 04:22:50;;;;;;;34.70;14.70;;;;;;;1.64;77.56;101877.59;5042689;28;20515;-74
2022/03/01 04:25:15;;;;;;;40.97;15.45;;;;;;;1.58;77.43;101872.16;5041163;28;20033;-74
2022/03/01 04:27:41;;;;;;;24.95;11.48;;;;;;;1.75;77.48;101875.56;5042828;28;20033;-74
2022/03/01 04:30:08;;;;;;;36.78;13.18;;;;;;;1.77;77.37;101873.97;5042769;28;20021;-75
2022/03/01 04:32:34;;;;;;;35.95;15.95;;;;;;;1.71;77.30;101868.56;5041080;28;20509;-74
2022/03/01 04:35:02;;;;;;;37.65;14.23;;;;;;;1.64;77.66;101857.09;5042756;28;20029;-73
2022/03/01 04:37:27;;;;;;;37.83;15.90;;;;;;;1.66;77.60;101858.03;5057023;28;20060;-73
2022/03/01 04:39:53;;;;;;;36.80;15.93;;;;;;;1.72;77.49;101865.19;5044495;28;20017;-73
2022/03/01 04:42:18;;;;;;;38.55;14.65;;;;;;;1.79;77.15;101869.81;5062168;28;20040;-73
2022/03/01 04:44:44;;;;;;;38.65;13.80;;;;;;;1.75;77.44;101874.69;5062554;28;20028;-73
2022/03/01 04:47:09;;;;;;;41.28;16.25;;;;;;;1.70;77.52;101867.66;5062474;28;20020;-73
2022/03/01 04:49:35;;;;;;;36.17;13.10;;;;;;;1.73;77.56;101864.38;5044493;28;20428;-74
2022/03/01 04:52:00;;;;;;;27.77;11.68;;;;;;;1.72;77.57;101854.94;5044581;28;20021;-75
2022/03/01 04:54:25;;;;;;;35.90;14.85;;;;;;;1.65;77.38;101817.88;5044635;28;20025;-76
2022/03/01 04:56:51;;;;;;;37.85;15.63;;;;;;;1.84;77.19;101849.53;5062670;28;20021;-74
2022/03/01 04:59:17;;;;;;;27.27;12.00;;;;;;;1.67;77.44;101826.53;5044778;28;20025;-75
2022/03/01 05:01:42;;;;;;;38.00;15.13;;;;;;;1.78;77.39;101839.88;5062660;28;20041;-74
2022/03/01 05:04:08;;;;;;;22.30;9.15;;;;;;;1.87;77.22;101839.44;5062393;28;20029;-74
2022/03/01 05:06:33;;;;;;;28.85;13.95;;;;;;;1.81;77.08;101839.16;5062185;28;20028;-74
2022/03/01 05:08:58;;;;;;;34.08;13.80;;;;;;;1.79;77.24;101823.69;5062298;28;20297;-75
2022/03/01 05:11:24;;;;;;;38.72;17.70;;;;;;;1.82;77.39;101840.94;5043811;28;20028;-73
2022/03/01 05:13:49;;;;;;;30.05;11.00;;;;;;;1.81;77.23;101828.91;5044425;28;20021;-74
2022/03/01 05:16:15;;;;;;;22.55;10.93;;;;;;;1.73;77.28;101816.59;5044405;28;20032;-73
2022/03/01 05:18:40;;;;;;;38.58;13.57;;;;;;;1.93;76.83;101815.84;5062904;28;20025;-74
2022/03/01 05:21:05;;;;;;;24.48;9.35;;;;;;;1.83;77.01;101817.94;5065783;28;20044;-74
2022/03/01 05:23:31;;;;;;;36.60;12.18;;;;;;;1.88;77.15;101835.22;5065802;28;20021;-74
2022/03/01 05:25:56;;;;;;;33.50;14.60;;;;;;;1.84;77.19;101826.50;5047776;28;20078;-74
2022/03/01 05:28:22;;;;;;;34.38;12.88;;;;;;;1.80;77.29;101822.91;5065933;28;20063;-74
2022/03/01 05:30:47;;;;;;;32.75;12.48;;;;;;;1.82;77.36;101834.09;5065921;28;20024;-74
2022/03/01 05:33:13;;;;;;;37.38;16.38;;;;;;;1.81;77.40;101832.34;5065637;28;20025;-74
2022/03/01 05:35:38;;;;;;;27.77;12.23;;;;;;;1.83;77.28;101837.56;5065639;28;20477;-73
2022/03/01 05:38:05;;;;;;;31.80;12.95;;;;;;;1.81;77.14;101828.91;5065362;28;20055;-75
2022/03/01 05:40:31;;;;;;;31.80;12.32;;;;;;;1.84;77.33;101839.31;5047127;28;20031;-73
2022/03/01 05:42:59;;;;;;;35.55;12.32;;;;;;;1.85;77.39;101835.97;5065476;28;20021;-72
2022/03/01 05:45:25;;;;;;;29.02;11.77;;;;;;;1.81;77.49;101827.22;5065865;28;20017;-73
2022/03/01 05:47:51;;;;;;;32.55;12.90;;;;;;;1.84;77.29;101824.81;5047015;28;20051;-73
2022/03/01 05:50:18;;;;;;;29.75;11.05;;;;;;;1.94;77.03;101822.72;5065423;28;20084;-74
2022/03/01 05:52:43;;;;;;;37.92;14.10;;;;;;;1.82;77.21;101805.06;5047083;28;20028;-73
2022/03/01 05:55:10;;;;;;;35.92;13.60;;;;;;;1.83;77.12;101805.16;5064899;28;20021;-74
2022/03/01 05:57:36;;;;;;;31.27;12.90;;;;;;;1.74;77.29;101814.94;5047429;28;20095;-73
2022/03/01 06:00:07;;;;;;;30.50;9.88;;;;;;;1.88;77.47;101843.78;5065101;28;20024;-72
2022/03/01 06:02:33;;;;;;;28.88;11.00;;;;;;;1.93;77.20;101829.50;5064743;28;20032;-73
2022/03/01 06:04:59;;;;;;;25.52;10.50;;;;;;;1.86;77.33;101837.72;5065109;28;20052;-73
2022/03/01 06:07:24;;;;;;;26.70;10.65;;;;;;;1.92;77.18;101840.56;5065130;28;20033;-73
2022/03/01 06:09:50;;;;;;;27.98;9.57;;;;;;;1.89;77.19;101832.75;5064961;28;20081;-74
2022/03/01 06:12:16;;;;;;;24.33;10.05;;;;;;;1.82;77.04;101823.00;5064625;28;20017;-70
2022/03/01 06:14:42;;;;;;;23.45;11.38;;;;;;;1.72;77.08;101804.63;5064702;28;20085;-70
2022/03/01 06:17:07;;;;;;;32.45;11.15;;;;;;;1.87;77.15;101818.09;5064807;28;20078;-73
2022/03/01 06:19:33;;;;;;;26.67;10.98;;;;;;;1.92;77.06;101827.75;5046754;28;20037;-77
2022/03/01 06:21:59;;;;;;;26.35;11.27;;;;;;;1.95;76.82;101825.34;5064899;28;20024;-75
2022/03/01 06:24:25;;;;;;;28.70;12.30;;;;;;;1.97;77.04;101826.31;5064369;28;20021;-75
2022/03/01 06:26:50;;;;;;;32.25;12.50;;;;;;;2.00;76.81;101837.53;5064631;28;20090;-74
2022/03/01 06:29:16;;;;;;;30.73;10.18;;;;;;;2.07;76.51;101835.34;5064844;28;20032;-75
2022/03/01 06:31:41;;;;;;;32.38;11.25;;;;;;;1.98;76.47;101825.50;5063907;28;20491;-74
2022/03/01 06:34:07;;;;;;;25.42;8.80;;;;;;;2.08;76.75;101846.47;5064653;28;20035;-75
2022/03/01 06:36:32;;;;;;;27.38;10.43;;;;;;;2.07;76.97;101853.28;5046169;28;20112;-75
2022/03/01 06:38:57;;;;;;;28.33;9.95;;;;;;;2.21;76.47;101848.84;5064259;28;20107;-75
2022/03/01 06:41:23;;;;;;;25.27;9.70;;;;;;;2.09;76.41;101812.38;5046024;28;20051;-75
2022/03/01 06:43:48;;;;;;;23.17;9.25;;;;;;;2.27;76.33;101847.41;5064435;28;20167;-75
2022/03/01 06:46:14;;;;;;;33.65;11.70;;;;;;;2.31;76.45;101850.19;5064287;28;20020;-75
2022/03/01 06:48:39;;;;;;;20.90;8.40;;;;;;;2.39;76.35;101850.56;5064255;28;20119;-74
2022/03/01 06:51:07;;;;;;;26.25;10.88;;;;;;;2.46;76.24;101855.16;5064006;28;20021;-75
2022/03/01 06:53:33;;;;;;;22.65;9.68;;;;;;;2.65;76.00;101853.47;5064399;28;20017;-76
2022/03/01 06:55:59;;;;;;;29.45;10.00;;;;;;;2.91;76.00;101858.97;5064021;28;20024;-75
2022/03/01 06:58:25;;;;;;;31.50;10.05;;;;;;;3.20;75.37;101862.00;5064245;28;20084;-77
2022/03/01 07:00:50;;;;;;;22.73;7.22;;;;;;;3.49;74.14;101866.69;5064004;28;20025;-77
2022/03/01 07:03:15;;;;;;;26.13;10.20;;;;;;;3.62;73.87;101873.25;5063883;28;20033;-75
2022/03/01 07:05:41;;;;;;;25.70;9.20;;;;;;;3.68;72.84;101896.63;5063939;28;20025;-76
2022/03/01 07:08:08;;;;;;;21.20;9.63;;;;;;;3.60;72.66;101892.84;5063923;28;20025;-75
2022/03/01 07:10:34;;;;;;;22.73;9.95;;;;;;;3.57;72.66;101875.63;5045539;28;20421;-76
2022/03/01 07:12:59;;;;;;;19.95;9.63;;;;;;;3.75;71.95;101884.94;5063559;28;20089;-75
2022/03/01 07:15:25;;;;;;;20.70;9.00;;;;;;;3.66;72.10;101870.00;5063952;28;20025;-75
2022/03/01 07:17:50;;;;;;;24.13;7.28;;;;;;;3.75;71.25;101886.63;5045835;28;20036;-77
2022/03/01 07:20:15;;;;;;;23.80;9.02;;;;;;;3.70;71.15;101894.13;5045983;28;20078;-76
2022/03/01 07:22:41;;;;;;;22.05;9.20;;;;;;;3.63;70.78;101900.69;5063710;28;20021;-75
2022/03/01 07:25:07;;;;;;;24.30;9.38;;;;;;;3.50;70.85;101903.53;5063700;28;20029;-74
2022/03/01 07:27:33;;;;;;;29.23;9.77;;;;;;;3.36;71.03;101906.34;5063352;28;20029;-75
2022/03/01 07:29:59;;;;;;;25.98;10.52;;;;;;;3.32;70.96;101902.75;5063649;28;20522;-77
2022/03/01 07:32:25;;;;;;;18.83;8.55;;;;;;;3.22;71.42;101896.34;5063352;28;20025;-75
2022/03/01 07:34:50;;;;;;;23.73;8.73;;;;;;;3.22;71.36;101896.34;5063430;28;20456;-76
2022/03/01 07:37:16;;;;;;;31.85;9.93;;;;;;;3.14;71.37;101872.00;5063193;28;20095;-76
2022/03/01 07:39:41;;;;;;;25.33;10.85;;;;;;;3.12;71.31;101883.88;5063202;28;20100;-75
2022/03/01 07:42:07;;;;;;;33.58;11.55;;;;;;;2.97;71.85;101895.16;5062853;28;20052;-75
2022/03/01 07:44:37;;;;;;;23.67;9.43;;;;;;;3.01;71.96;101897.88;5063098;28;20378;-77
2022/03/01 07:47:05;;;;;;;28.95;9.45;;;;;;;3.02;72.15;101899.66;5063304;28;20248;-76
2022/03/01 07:49:30;;;;;;;18.40;7.82;;;;;;;2.93;72.02;101894.94;5063277;28;20074;-75
2022/03/01 07:51:55;;;;;;;25.85;9.82;;;;;;;2.97;72.12;101920.81;5063076;28;20025;-76
2022/03/01 07:54:21;;;;;;;22.17;7.68;;;;;;;3.00;72.14;101909.84;5045174;28;20028;-74
2022/03/01 07:56:46;;;;;;;31.90;9.85;;;;;;;2.98;72.23;101903.75;5062626;28;20389;-77
2022/03/01 07:59:11;;;;;;;28.25;10.82;;;;;;;3.02;72.11;101895.38;5045049;28;20045;-76
2022/03/01 08:01:37;;;;;;;24.42;9.20;;;;;;;2.92;71.83;101894.09;5062881;28;20021;-76
2022/03/01 08:04:02;;;;;;;20.08;8.43;;;;;;;3.00;71.87;101904.72;5045049;28;20025;-77
2022/03/01 08:06:27;;;;;;;26.05;9.30;;;;;;;2.90;72.29;101899.94;5063024;28;20094;-77
2022/03/01 08:08:53;;;;;;;25.50;10.07;;;;;;;2.89;72.35;101893.06;5062899;28;20029;-75
2022/03/01 08:11:18;;;;;;;21.83;8.80;;;;;;;2.93;72.17;101885.56;5062571;28;20477;-76
2022/03/01 08:13:44;;;;;;;21.42;8.35;;;;;;;2.91;71.96;101884.63;5062830;28;20028;-76
2022/03/01 08:16:09;;;;;;;25.85;9.75;;;;;;;2.91;71.63;101879.50;5062940;28;20063;-75
2022/03/01 08:18:35;;;;;;;19.60;8.18;;;;;;;2.95;71.88;101890.78;5062967;28;20028;-77
2022/03/01 08:21:00;;;;;;;39.28;12.52;;;;;;;2.88;71.84;101883.59;5062730;28;20488;-75
2022/03/01 08:23:27;;;;;;;26.77;10.32;;;;;;;2.89;71.81;101888.78;5062739;28;20040;-76
2022/03/01 08:25:52;;;;;;;25.17;8.82;;;;;;;2.81;71.79;101893.56;5062400;28;20496;-76
2022/03/01 08:28:18;;;;;;;18.50;9.35;;;;;;;2.83;71.83;101893.63;5062746;28;20032;-78
2022/03/01 08:30:43;;;;;;;26.00;9.75;;;;;;;2.80;71.95;101904.63;5044734;28;20039;-75
2022/03/01 08:33:09;;;;;;;25.73;9.60;;;;;;;2.80;71.55;101903.75;5044617;28;20025;-75
2022/03/01 08:35:35;;;;;;;30.75;10.48;;;;;;;2.79;71.44;101907.13;5062741;28;20021;-76
2022/03/01 08:38:02;;;;;;;28.00;11.07;;;;;;;2.74;71.79;101909.47;5062574;28;20116;-77
2022/03/01 08:40:32;;;;;;;26.60;10.35;;;;;;;2.78;71.96;101910.50;5062301;28;20633;-75
2022/03/01 08:42:57;;;;;;;26.77;11.40;;;;;;;2.82;71.91;101902.16;5044394;28;20108;-76
2022/03/01 08:45:22;;;;;;;27.05;9.20;;;;;;;2.93;71.23;101897.53;5044604;28;20021;-76
2022/03/01 08:47:50;;;;;;;28.35;11.45;;;;;;;2.90;71.41;101905.06;5044528;28;20036;-76
2022/03/01 08:50:15;;;;;;;28.75;11.05;;;;;;;2.96;71.38;101907.94;5062669;28;20031;-77
2022/03/01 08:52:40;;;;;;;26.85;10.90;;;;;;;2.96;71.34;101892.53;5062403;28;20012;-75
2022/03/01 08:55:08;;;;;;;17.85;6.88;;;;;;;3.07;71.14;101900.72;5065282;28;20090;-75
2022/03/01 08:57:33;;;;;;;29.83;11.13;;;;;;;3.12;70.92;101898.38;5048279;28;20029;-77
2022/03/01 08:59:59;;;;;;;21.25;9.05;;;;;;;3.08;70.88;101900.78;5048302;28;20031;-77
2022/03/01 09:02:24;;;;;;;25.00;10.38;;;;;;;3.15;71.10;101912.22;5048213;28;20024;-76
2022/03/01 09:04:49;;;;;;;20.58;9.63;;;;;;;3.24;70.74;101903.22;5066604;28;20037;-76
2022/03/01 09:07:15;;;;;;;24.33;10.35;;;;;;;3.32;70.76;101894.19;5066474;28;20116;-76
2022/03/01 09:09:40;;;;;;;25.17;10.40;;;;;;;3.41;69.51;101894.59;5066251;28;20027;-76
2022/03/01 09:12:06;;;;;;;23.95;9.85;;;;;;;3.42;69.61;101906.63;5065842;28;20032;-77
2022/03/01 09:14:31;;;;;;;26.02;10.90;;;;;;;3.49;69.95;101901.75;5066232;28;20029;-77
2022/03/01 09:16:56;;;;;;;20.90;10.93;;;;;;;3.60;69.68;101900.56;5066214;28;20029;-76
2022/03/01 09:19:22;;;;;;;24.25;9.82;;;;;;;3.68;69.34;101909.47;5066041;28;20041;-75
2022/03/01 09:21:47;;;;;;;21.27;8.85;;;;;;;3.68;69.11;101911.16;5047816;28;20013;-74
2022/03/01 09:24:13;;;;;;;27.40;12.65;;;;;;;3.67;68.92;101897.47;5066109;28;20087;-76
2022/03/01 09:26:38;;;;;;;25.83;10.57;;;;;;;3.75;69.08;101910.63;5065457;28;20374;-76
2022/03/01 09:29:04;;;;;;;17.85;6.47;;;;;;;3.70;68.57;101895.03;5065679;28;20084;-75
2022/03/01 09:31:30;;;;;;;25.42;9.95;;;;;;;3.62;68.58;101904.06;5065722;28;20072;-77
2022/03/01 09:33:55;;;;;;;21.92;7.95;;;;;;;3.57;68.56;101902.97;5047732;28;20021;-75
2022/03/01 09:36:21;;;;;;;21.98;10.18;;;;;;;3.64;68.47;101902.47;5065629;28;20352;-77
2022/03/01 09:38:46;;;;;;;28.63;9.63;;;;;;;3.61;68.67;101892.03;5065988;28;20020;-75
2022/03/01 09:41:13;;;;;;;26.58;11.23;;;;;;;3.64;68.86;101894.75;5065296;28;20097;-77
2022/03/01 09:43:40;;;;;;;24.60;8.68;;;;;;;3.72;68.77;101921.63;5065673;28;20048;-76
2022/03/01 09:46:08;;;;;;;29.00;9.48;;;;;;;3.74;68.45;101923.41;5065806;28;20032;-77
2022/03/01 09:48:34;;;;;;;16.75;6.00;;;;;;;3.74;68.50;101923.41;5065662;28;20073;-76
2022/03/01 09:51:02;;;;;;;24.27;10.68;;;;;;;3.78;68.39;101915.91;5065623;28;20033;-77
2022/03/01 09:53:28;;;;;;;20.08;9.75;;;;;;;3.67;68.58;101878.59;5065414;28;20476;-77
2022/03/01 09:55:55;;;;;;;28.02;12.35;;;;;;;3.92;68.14;101892.50;5047321;28;20088;-77
2022/03/01 09:58:21;;;;;;;22.60;10.43;;;;;;;4.04;68.12;101897.28;5065447;28;20135;-77
2022/03/01 10:00:47;;;;;;;24.88;10.88;;;;;;;4.07;67.89;101902.56;5065256;28;20021;-77
2022/03/01 10:03:17;;;;;;;26.20;11.85;;;;;;;4.22;68.16;101900.63;5065209;28;20013;-77
2022/03/01 10:05:43;;;;;;;29.15;11.23;;;;;;;4.25;67.42;101899.88;5064293;28;20029;-76
2022/03/01 10:08:18;;;;;;;22.27;10.05;;;;;;;4.44;67.18;101888.66;5065514;28;20083;-79
2022/03/01 10:10:49;;;;;;;24.30;9.52;;;;;;;4.33;66.73;101884.78;5065022;28;20036;-77
2022/03/01 10:13:30;;;;;;;21.27;10.95;;;;;;;4.26;67.14;101883.66;5047269;28;20049;-78
2022/03/01 10:16:09;;;;;;;24.90;9.93;;;;;;;4.24;66.90;101899.81;5065602;28;20025;-76
2022/03/01 10:18:37;;;;;;;31.63;11.02;;;;;;;4.24;67.42;101917.81;5065200;28;20029;-78
2022/03/01 10:21:12;;;;;;;26.17;11.15;;;;;;;4.21;67.21;101919.47;5046872;28;20016;-77
2022/03/01 10:23:41;;;;;;;15.40;7.85;;;;;;;4.21;67.13;101906.59;5046756;28;20029;-77
2022/03/01 10:26:15;;;;;;;25.63;11.60;;;;;;;4.27;67.09;101900.84;5064462;28;20451;-76
2022/03/01 10:28:41;;;;;;;28.35;13.10;;;;;;;4.37;66.78;101884.09;5064862;28;20028;-77
2022/03/01 10:31:27;;;;;;;26.00;10.57;;;;;;;4.50;66.66;101903.50;5064864;28;20051;-75
2022/03/01 10:33:55;;;;;;;25.02;11.52;;;;;;;4.58;66.59;101894.38;5064744;28;20024;-77
2022/03/01 10:36:26;;;;;;;24.10;11.18;;;;;;;4.60;66.81;101873.84;5064649;28;20044;-76
2022/03/01 10:39:08;;;;;;;23.00;10.10;;;;;;;4.67;66.28;101875.88;5064774;28;20115;-78
2022/03/01 10:41:42;;;;;;;28.88;11.43;;;;;;;4.78;66.52;101901.13;5064479;28;20407;-76
2022/03/01 10:44:15;;;;;;;31.42;12.15;;;;;;;4.84;66.11;101916.81;5064675;28;20484;-76
2022/03/01 10:46:43;;;;;;;25.35;10.93;;;;;;;4.86;65.96;101916.91;5064723;28;20025;-77
2022/03/01 10:49:11;;;;;;;25.23;11.75;;;;;;;4.84;66.24;101919.38;5064505;28;20051;-77
2022/03/01 10:52:08;;;;;;;19.00;8.25;;;;;;;4.74;65.85;101917.28;5064681;28;20192;-77
2022/03/01 10:54:36;;;;;;;19.33;8.98;;;;;;;4.61;66.08;101910.75;5046663;28;20132;-77
2022/03/01 10:57:04;;;;;;;23.05;10.98;;;;;;;4.62;66.23;101907.38;5046597;28;20047;-78
2022/03/01 10:59:32;;;;;;;27.83;12.38;;;;;;;4.58;66.52;101908.94;5064769;28;20021;-76
2022/03/01 11:01:58;;;;;;;27.65;12.70;;;;;;;4.61;66.33;101903.03;5064193;28;20009;-78
2022/03/01 11:04:25;;;;;;;32.13;11.93;;;;;;;4.52;66.67;101903.56;5064287;28;20025;-77
2022/03/01 11:06:52;;;;;;;29.65;11.32;;;;;;;4.54;66.79;101894.19;5064177;28;20024;-78
2022/03/01 11:09:18;;;;;;;38.17;13.30;;;;;;;4.50;66.64;101900.03;5064141;28;20027;-77
2022/03/01 11:11:45;;;;;;;25.63;10.68;;;;;;;4.41;66.72;101901.41;5063635;28;20155;-77
2022/03/01 11:14:15;;;;;;;33.88;11.43;;;;;;;4.36;66.78;101908.03;5064188;28;20362;-77
2022/03/01 11:16:50;;;;;;;27.25;9.90;;;;;;;4.25;67.45;101911.88;5063731;28;20021;-77